Webcam Meteoipassi more information Webcam Meteoipassi


altri nostri siti meteo:

Pomeziameteo 1Sito sul meteo

MeteopomeziaSito sul meteo

Pomeziameteo DashboardSito sul meteo

Caput FrigorisSito sul meteo

BarcellonameteoSito sul meteo

ViterbometeoSito sul meteo

MeteotortoretoSito sul meteo

TortoretometeolidoSito sul meteo

MeteoGonzagaSito sul meteo



There is a communication problem. Go directly to the Meteoalarm site : www.meteoalarm.eu and check the Weather-warnings there .


Notice: Undefined offset: 6 in /web/htdocs/www.meteoipassi.it/home/weather28/metar/metarDisplay.php on line 75

Notice: Undefined offset: 5 in /web/htdocs/www.meteoipassi.it/home/weather28/metar/metarDisplay.php on line 75

Report METAR

   
LIRQ - Firenze
Dati ricevuti: Jun 26 2022 6:20 am
Poche nuvole  
Poche nuvole  
   Vento: Variabile 3.7 km/h
Vento: Variabile 3.7 km/h
Temperatura: 19°C
P.to Rugiada: 13°C
Umidita: 68%
Barometro: 1015 hPa
Nuvole: Poche nuvole
Visibilita: oltre 10 km
dettagli cloud: Poche nuvole 2438.4 m
LIRQ 260420Z VRB02KT 9999 FEW080 19/13 Q1015
LIRP - Lucca
Dati ricevuti: Jun 26 2022 6:15 am
Sereno  
Sereno  
   Vento: SE 3.7 km/h
Vento: SE 3.7 km/h
Temperatura: 19°C
P.to Rugiada: 19°C
Umidita: 100%
Barometro: 1014 hPa
Visibilita: oltre 10 km
dettagli cloud: Sereno
LIRP 260415Z 14002KT CAVOK 19/19 Q1014 NOSIG
LIPE - Bologna
Dati ricevuti: Jun 26 2022 6:20 am
Sereno  
Sereno  
   Vento: W 7.4 km/h
Vento: W 7.4 km/h
Temperatura: 21°C
P.to Rugiada: 12°C
Umidita: 57%
Barometro: 1014 hPa
Visibilita: oltre 10 km
dettagli cloud: Sereno
LIPE 260420Z 25004KT 220V290 CAVOK 21/12 Q1014
LIMP - Parma
Dati ricevuti: Jun 25 2022 10:50 pm
DATI Obsoleti
Sereno  
Sereno  
   Vento: SW 18.5 km/h
Vento: SW 18.5 km/h
Temperatura: 26°C
P.to Rugiada: 12°C
Umidita: 42%
Barometro: 1012 hPa
Visibilita: oltre 10 km
dettagli cloud: Sereno
LIMP 252050Z 23010KT CAVOK 26/12 Q1012
  

Script sviluppato da  Saratoga-weather.org Adattato per il modello da  Weerstation Leuven

Potete trovare le nostre info meteo anche a:

European Weather Network

Weather Underground

AWEKAS

HAMweather, WeatherForYou, PWS Weather

Strumentazione usata:

Stazione meteo
Davis Vantage Vue

Programma gestore dati meteo
WVIEW

Server per i dati meteo
WDS-5

Provider
Anemos WDS-5

Davis Vantage Vue

WVIEW

WDS-5

Anemos WDS-5